Time;durP1;ratioP1;P1;durP2;ratioP2;P2;SDS_P1;SDS_P2;PMS_P1;PMS_P2;Temp;Humidity;BMP_temperature;BMP_pressure;BME280_temperature;BME280_humidity;BME280_pressure;Samples;Min_cycle;Max_cycle;Signal;HPM_P1;HPM_P2
2022/04/21 00:02:15;;;;;;;5.25;3.17;;;17.70;57.90;;;;;;6289570;28;20468;-70
2022/04/21 00:05:16;;;;;;;4.70;3.08;;;17.70;57.90;;;;;;6272526;28;20041;-70
2022/04/21 00:08:20;;;;;;;4.55;2.78;;;17.70;58.00;;;;;;6290656;28;20036;-70
2022/04/21 00:11:21;;;;;;;6.30;2.42;;;17.70;58.00;;;;;;6292130;28;20086;-70
2022/04/21 00:14:22;;;;;;;5.78;3.42;;;17.70;58.00;;;;;;6303132;28;20129;-70
2022/04/21 00:17:23;;;;;;;7.82;2.67;;;17.80;58.10;;;;;;6291183;28;20040;-69
2022/04/21 00:20:24;;;;;;;8.10;2.63;;;17.70;58.10;;;;;;6288935;28;20047;-70
2022/04/21 00:23:29;;;;;;;4.65;2.90;;;17.70;58.10;;;;;;6287207;28;20044;-70
2022/04/21 00:26:30;;;;;;;4.53;2.67;;;17.70;58.20;;;;;;6302435;28;20155;-70
2022/04/21 00:29:30;;;;;;;4.90;2.95;;;17.70;58.30;;;;;;6290449;28;20028;-70
2022/04/21 00:32:31;;;;;;;3.92;2.92;;;17.70;58.40;;;;;;6288941;28;20694;-70
2022/04/21 00:35:32;;;;;;;6.47;3.30;;;17.70;58.40;;;;;;6289614;28;20120;-70
2022/04/21 00:38:33;;;;;;;5.70;3.38;;;17.60;58.60;;;;;;6292870;28;20043;-70
2022/04/21 00:41:34;;;;;;;4.30;3.08;;;17.60;59.00;;;;;;6288875;28;20052;-70
2022/04/21 00:44:35;;;;;;;6.30;3.35;;;17.50;59.10;;;;;;6290207;28;20098;-71
2022/04/21 00:47:40;;;;;;;7.45;3.17;;;17.50;59.20;;;;;;6291897;28;20366;-71
2022/04/21 00:50:41;;;;;;;3.78;2.90;;;17.50;59.40;;;;;;6295101;28;20078;-69
2022/04/21 00:53:43;;;;;;;2.78;2.15;;;17.50;59.40;;;;;;6288799;28;20127;-70
2022/04/21 00:56:45;;;;;;;6.13;2.78;;;17.50;59.40;;;;;;6290176;28;20044;-70
2022/04/21 00:59:46;;;;;;;4.50;2.58;;;17.40;59.30;;;;;;6290852;28;20123;-71
2022/04/21 01:02:49;;;;;;;4.82;2.90;;;17.40;59.20;;;;;;6289409;28;20098;-69
2022/04/21 01:05:50;;;;;;;6.63;3.15;;;17.40;59.20;;;;;;6290454;28;20371;-70
2022/04/21 01:08:51;;;;;;;8.27;2.80;;;17.40;59.20;;;;;;6272770;28;20024;-70
2022/04/21 01:11:52;;;;;;;7.13;2.70;;;17.40;59.20;;;;;;6272777;28;20044;-70
2022/04/21 01:14:53;;;;;;;3.42;2.63;;;17.40;59.20;;;;;;6290993;28;20090;-70
2022/04/21 01:17:55;;;;;;;5.60;3.30;;;17.50;59.20;;;;;;6288570;28;20445;-70
2022/04/21 01:20:56;;;;;;;3.72;2.40;;;17.50;59.20;;;;;;6288845;28;20097;-70
2022/04/21 01:23:56;;;;;;;4.88;2.78;;;17.40;59.10;;;;;;6288785;28;20350;-71
2022/04/21 01:26:58;;;;;;;4.30;2.65;;;17.50;59.10;;;;;;6288453;28;20468;-71
2022/04/21 01:30:00;;;;;;;4.30;2.53;;;17.40;59.00;;;;;;6291157;28;20036;-70
2022/04/21 01:33:01;;;;;;;3.80;2.50;;;17.50;59.00;;;;;;6273639;28;20453;-70
2022/04/21 01:36:02;;;;;;;4.47;3.33;;;17.50;59.00;;;;;;6290461;28;20111;-69
2022/04/21 01:42:22;;;;;;;4.45;2.80;;;17.40;58.90;;;;;;6289886;28;20123;-69
2022/04/21 01:45:23;;;;;;;5.80;2.72;;;17.50;58.90;;;;;;6289899;28;20055;-69
2022/04/21 01:48:24;;;;;;;6.93;2.58;;;17.50;58.90;;;;;;6289851;28;20036;-71
2022/04/21 01:51:25;;;;;;;5.80;2.83;;;17.50;58.80;;;;;;6286739;28;20082;-70
2022/04/21 01:54:26;;;;;;;7.40;2.88;;;17.40;58.90;;;;;;6290532;28;20032;-71
2022/04/21 01:57:27;;;;;;;4.30;2.75;;;17.40;59.00;;;;;;6293262;28;20091;-70
2022/04/21 02:00:28;;;;;;;3.80;2.60;;;17.40;59.10;;;;;;6291265;28;20041;-71
2022/04/21 02:03:31;;;;;;;4.70;3.00;;;17.40;59.10;;;;;;6291169;28;20399;-70
2022/04/21 02:06:31;;;;;;;3.78;2.95;;;17.40;59.20;;;;;;6293259;28;20036;-72
2022/04/21 02:09:33;;;;;;;5.85;3.00;;;17.40;59.20;;;;;;6287308;28;20041;-70
2022/04/21 02:12:34;;;;;;;4.25;2.65;;;17.40;59.10;;;;;;6289990;28;20130;-70
2022/04/21 02:15:35;;;;;;;3.28;2.30;;;17.40;59.00;;;;;;6290634;28;20357;-70
2022/04/21 02:18:36;;;;;;;3.03;2.38;;;17.50;59.00;;;;;;6293530;28;20051;-70
2022/04/21 02:21:37;;;;;;;6.40;2.58;;;17.50;59.00;;;;;;6291040;28;20052;-70
2022/04/21 02:24:37;;;;;;;3.83;2.55;;;17.50;58.90;;;;;;6289913;28;20382;-70
2022/04/21 02:27:40;;;;;;;7.68;2.53;;;17.50;58.80;;;;;;6292264;28;20044;-70
2022/04/21 02:30:41;;;;;;;5.50;2.40;;;17.40;58.80;;;;;;6292948;28;20025;-70
2022/04/21 02:33:43;;;;;;;3.47;2.25;;;17.40;58.80;;;;;;6290596;28;20029;-70
2022/04/21 02:36:44;;;;;;;3.60;2.38;;;17.50;58.80;;;;;;6294741;28;20107;-71
2022/04/21 02:39:45;;;;;;;3.83;2.40;;;17.50;58.80;;;;;;6287795;28;20074;-71
2022/04/21 02:42:45;;;;;;;4.18;2.50;;;17.50;58.80;;;;;;6292094;28;20067;-71
2022/04/21 02:45:46;;;;;;;4.32;2.50;;;17.50;58.70;;;;;;6292126;28;20067;-71
2022/04/21 02:48:47;;;;;;;7.07;2.20;;;17.50;58.70;;;;;;6285178;28;20365;-70
2022/04/21 02:51:48;;;;;;;6.15;2.25;;;17.60;58.70;;;;;;6290189;28;20374;-70
2022/04/21 02:58:09;;;;;;;8.40;2.50;;;17.60;58.60;;;;;;6291101;28;20040;-71
2022/04/21 03:01:10;;;;;;;3.30;2.00;;;17.60;58.50;;;;;;6292022;28;20032;-71
2022/04/21 03:04:11;;;;;;;5.50;2.67;;;17.50;58.50;;;;;;6290149;28;20193;-70
2022/04/21 03:07:13;;;;;;;6.32;2.40;;;17.50;58.50;;;;;;6290986;28;20044;-71
2022/04/21 03:10:14;;;;;;;3.17;2.25;;;17.50;58.50;;;;;;6291321;28;20120;-71
2022/04/21 03:13:15;;;;;;;4.25;2.50;;;17.50;58.60;;;;;;6289704;28;20119;-70
2022/04/21 03:16:16;;;;;;;4.47;2.58;;;17.40;58.60;;;;;;6291356;28;20044;-70
2022/04/21 03:19:17;;;;;;;4.55;2.60;;;17.40;58.70;;;;;;6291538;28;20101;-70
2022/04/21 03:25:38;;;;;;;6.35;2.78;;;17.30;58.70;;;;;;6293425;28;20116;-70
2022/04/21 03:28:38;;;;;;;5.63;2.70;;;17.30;58.80;;;;;;6291406;28;20048;-70
2022/04/21 03:31:42;;;;;;;8.95;2.40;;;17.30;58.80;;;;;;6272516;28;20032;-70
2022/04/21 03:34:44;;;;;;;7.40;2.58;;;17.30;58.90;;;;;;6289187;28;20414;-70
2022/04/21 03:37:45;;;;;;;6.93;2.85;;;17.30;58.80;;;;;;6289261;28;20097;-70
2022/04/21 03:40:46;;;;;;;3.92;2.63;;;17.30;58.70;;;;;;6291278;28;20040;-70
2022/04/21 03:43:46;;;;;;;8.82;2.97;;;17.30;58.70;;;;;;6291286;28;20062;-70
2022/04/21 03:46:48;;;;;;;6.15;3.15;;;17.30;58.80;;;;;;6286689;28;20040;-70
2022/04/21 03:49:49;;;;;;;6.38;2.63;;;17.30;58.70;;;;;;6288467;28;20040;-70
2022/04/21 03:52:50;;;;;;;5.47;2.75;;;17.30;58.80;;;;;;6290139;28;20060;-70
2022/04/21 03:55:51;;;;;;;15.20;2.80;;;17.30;58.80;;;;;;6283821;28;20408;-70
2022/04/21 03:58:52;;;;;;;7.43;2.72;;;17.30;58.80;;;;;;6291960;28;20521;-70
2022/04/21 04:01:53;;;;;;;7.07;2.38;;;17.30;58.80;;;;;;6289828;28;20033;-71
2022/04/21 04:04:53;;;;;;;7.13;2.47;;;17.30;58.80;;;;;;6288183;28;20476;-70
2022/04/21 04:11:14;;;;;;;4.75;2.83;;;17.20;58.80;;;;;;6289929;28;20419;-70
2022/04/21 04:14:14;;;;;;;6.72;3.10;;;17.20;58.90;;;;;;6288362;28;20036;-70
2022/04/21 04:17:15;;;;;;;7.82;3.00;;;17.20;58.90;;;;;;6286623;28;20028;-70
2022/04/21 04:20:16;;;;;;;8.48;3.13;;;17.30;59.00;;;;;;6288183;28;20465;-69
2022/04/21 04:23:21;;;;;;;15.88;3.47;;;17.20;58.90;;;;;;6273495;28;20140;-70
2022/04/21 04:26:22;;;;;;;3.97;2.50;;;17.20;58.90;;;;;;6289161;28;20033;-70
2022/04/21 04:29:23;;;;;;;7.88;2.58;;;17.20;59.00;;;;;;6290395;28;20033;-70
2022/04/21 04:32:24;;;;;;;5.63;2.83;;;17.20;58.90;;;;;;6287365;28;20040;-69
2022/04/21 04:35:26;;;;;;;6.53;2.67;;;17.20;59.00;;;;;;6287593;28;20029;-70
2022/04/21 04:38:26;;;;;;;6.80;2.70;;;17.00;58.90;;;;;;6307411;28;20376;-71
2022/04/21 04:44:49;;;;;;;8.45;3.75;;;17.20;59.10;;;;;;6287734;28;20085;-71
2022/04/21 04:47:50;;;;;;;4.20;2.78;;;17.20;59.10;;;;;;6288284;28;20041;-70
2022/04/21 04:50:50;;;;;;;5.13;2.78;;;17.30;59.10;;;;;;6291183;28;20575;-71
2022/04/21 04:53:53;;;;;;;5.18;3.05;;;17.30;59.10;;;;;;6289878;28;20116;-71
2022/04/21 04:56:55;;;;;;;3.50;2.53;;;17.30;59.10;;;;;;6289553;28;20044;-71
2022/04/21 04:59:57;;;;;;;5.53;2.65;;;17.30;59.10;;;;;;6289581;28;20465;-71
2022/04/21 05:02:58;;;;;;;8.73;3.05;;;17.30;59.10;;;;;;6273187;28;20044;-71
2022/04/21 05:05:59;;;;;;;8.60;3.17;;;17.30;59.10;;;;;;6290274;28;20024;-70
2022/04/21 05:09:00;;;;;;;7.13;2.40;;;17.30;59.10;;;;;;6291564;28;20115;-70
2022/04/21 05:12:02;;;;;;;5.20;2.65;;;17.30;59.10;;;;;;6289682;28;20036;-70
2022/04/21 05:15:04;;;;;;;4.85;2.85;;;17.30;59.10;;;;;;6291064;28;20460;-70
2022/04/21 05:18:05;;;;;;;6.72;3.20;;;17.30;59.10;;;;;;6288740;28;20056;-70
2022/04/21 05:21:06;;;;;;;3.03;2.50;;;17.30;59.20;;;;;;6290103;28;20036;-70
2022/04/21 05:24:08;;;;;;;5.40;2.60;;;17.30;59.20;;;;;;6290028;28;20029;-70
2022/04/21 05:27:10;;;;;;;6.50;2.75;;;17.30;59.20;;;;;;6290952;28;20059;-70
2022/04/21 05:33:31;;;;;;;6.40;3.13;;;17.40;59.20;;;;;;6293155;28;20435;-70
2022/04/21 05:36:32;;;;;;;6.07;3.03;;;17.40;59.20;;;;;;6294558;28;20063;-70
2022/04/21 05:39:33;;;;;;;5.88;3.05;;;17.40;59.20;;;;;;6293350;28;20362;-70
2022/04/21 05:42:38;;;;;;;6.85;3.58;;;17.40;59.20;;;;;;6295289;28;20036;-70
2022/04/21 05:45:39;;;;;;;6.38;3.65;;;17.40;59.20;;;;;;6291231;28;20123;-70
2022/04/21 05:48:41;;;;;;;7.95;3.15;;;17.50;59.20;;;;;;6292713;28;20028;-70
2022/04/21 05:51:43;;;;;;;6.75;3.33;;;17.50;59.20;;;;;;6294004;28;20028;-70
2022/04/21 05:54:44;;;;;;;6.97;3.67;;;17.50;59.20;;;;;;6292594;28;20043;-70
2022/04/21 05:57:45;;;;;;;4.55;3.00;;;17.50;59.10;;;;;;6290157;28;20044;-71
2022/04/21 06:00:46;;;;;;;6.22;3.58;;;17.50;59.10;;;;;;6291473;28;20116;-70
2022/04/21 06:03:47;;;;;;;9.18;3.67;;;17.50;59.10;;;;;;6292975;28;20029;-70
2022/04/21 06:06:48;;;;;;;5.30;3.53;;;17.50;59.00;;;;;;6293813;28;20082;-70
2022/04/21 06:09:49;;;;;;;6.57;3.40;;;17.50;58.90;;;;;;6293119;28;20060;-70
2022/04/21 06:12:49;;;;;;;8.80;3.72;;;17.60;58.90;;;;;;6291118;28;20111;-70
2022/04/21 06:15:50;;;;;;;8.15;3.88;;;17.60;58.90;;;;;;6293349;28;20041;-70
2022/04/21 06:18:51;;;;;;;11.48;4.05;;;17.60;58.90;;;;;;6293271;28;20083;-70
2022/04/21 06:21:52;;;;;;;18.05;4.80;;;17.60;58.90;;;;;;6292132;28;20033;-70
2022/04/21 06:24:53;;;;;;;8.77;4.22;;;17.60;58.80;;;;;;6293856;28;20401;-70
2022/04/21 06:27:54;;;;;;;9.10;4.07;;;17.70;58.80;;;;;;6293571;28;20411;-70
2022/04/21 06:30:55;;;;;;;6.20;3.60;;;17.70;58.80;;;;;;6292607;28;20062;-70
2022/04/21 06:33:57;;;;;;;16.60;4.25;;;17.70;58.70;;;;;;6290779;28;20488;-70
2022/04/21 06:37:00;;;;;;;8.48;3.88;;;17.70;58.70;;;;;;6294310;28;20418;-71
2022/04/21 06:40:02;;;;;;;10.90;3.40;;;17.70;58.70;;;;;;6289045;28;20115;-71
2022/04/21 06:48:01;;;;;;;13.80;3.88;;;17.80;58.70;;;;;;6292820;28;20024;-71
2022/04/21 06:49:44;;;;;;;6.88;4.15;;;17.90;58.50;;;;;;6292518;28;20044;-71
2022/04/21 06:52:45;;;;;;;9.70;4.38;;;17.90;58.50;;;;;;6288567;28;20033;-70
2022/04/21 06:55:46;;;;;;;9.55;4.47;;;17.90;58.60;;;;;;6292201;28;20414;-71
2022/04/21 06:58:47;;;;;;;8.07;4.55;;;17.90;58.70;;;;;;6272097;28;20047;-71
2022/04/21 07:01:48;;;;;;;8.00;4.32;;;18.00;58.80;;;;;;6291682;28;20045;-71
2022/04/21 07:04:49;;;;;;;8.60;5.45;;;18.00;58.70;;;;;;6287392;28;20527;-71
2022/04/21 07:07:51;;;;;;;11.60;4.65;;;18.00;58.60;;;;;;6292880;28;20437;-71
2022/04/21 07:10:52;;;;;;;20.17;5.22;;;18.10;58.60;;;;;;6288360;28;20113;-70
2022/04/21 07:13:54;;;;;;;10.55;4.72;;;18.10;58.60;;;;;;6291702;28;20025;-70
2022/04/21 07:16:58;;;;;;;10.68;4.80;;;18.20;58.50;;;;;;6273720;28;20029;-70
2022/04/21 07:19:59;;;;;;;13.63;5.18;;;18.30;58.50;;;;;;6291544;28;20041;-70
2022/04/21 07:23:01;;;;;;;12.07;5.43;;;18.30;58.30;;;;;;6291951;28;20032;-70
2022/04/21 07:26:02;;;;;;;13.38;6.22;;;18.40;58.30;;;;;;6292816;28;20036;-70
2022/04/21 07:29:04;;;;;;;12.43;6.43;;;18.50;58.20;;;;;;6292032;28;25692;-69
2022/04/21 07:32:05;;;;;;;9.70;4.60;;;18.50;58.00;;;;;;6290744;28;20502;-71
2022/04/21 07:35:06;;;;;;;12.10;6.25;;;18.60;57.80;;;;;;6292446;28;20051;-70
2022/04/21 07:38:07;;;;;;;13.80;6.07;;;18.80;57.70;;;;;;6288489;28;20128;-71
2022/04/21 07:41:08;;;;;;;30.92;7.85;;;18.90;57.40;;;;;;6292297;28;20147;-71
2022/04/21 07:44:09;;;;;;;13.05;5.00;;;19.00;57.20;;;;;;6284658;28;20028;-71
2022/04/21 07:47:10;;;;;;;8.15;4.30;;;19.10;57.20;;;;;;6291190;28;20063;-72
2022/04/21 07:50:11;;;;;;;9.77;4.10;;;19.10;57.00;;;;;;6289799;28;20407;-71
2022/04/21 07:53:15;;;;;;;11.82;5.40;;;19.20;56.80;;;;;;6286500;28;20051;-71
2022/04/21 07:56:16;;;;;;;13.35;4.13;;;19.30;56.70;;;;;;6290016;28;20036;-71
2022/04/21 07:59:17;;;;;;;8.32;4.43;;;19.40;56.50;;;;;;6290367;28;20145;-71
2022/04/21 08:02:18;;;;;;;12.98;4.90;;;19.40;56.20;;;;;;6289719;28;20029;-71
2022/04/21 08:05:21;;;;;;;11.25;4.25;;;19.50;56.10;;;;;;6291978;28;20041;-71
2022/04/21 08:08:22;;;;;;;9.40;4.43;;;19.50;56.00;;;;;;6289071;28;20032;-71
2022/04/21 08:11:23;;;;;;;8.13;4.07;;;19.60;55.80;;;;;;6290456;28;20073;-70
2022/04/21 08:14:25;;;;;;;10.30;4.07;;;19.70;55.60;;;;;;6289649;28;20047;-71
2022/04/21 08:17:25;;;;;;;7.10;4.25;;;19.70;55.40;;;;;;6271704;28;20059;-71
2022/04/21 08:20:29;;;;;;;9.23;3.90;;;19.80;55.20;;;;;;6289375;28;20042;-71
2022/04/21 08:23:30;;;;;;;9.93;4.63;;;19.80;54.90;;;;;;6270247;28;20036;-70
2022/04/21 08:33:10;;;;;;;8.25;4.00;;;20.00;54.40;;;;;;6290042;28;20465;-70
2022/04/21 08:36:11;;;;;;;23.27;4.13;;;20.00;54.10;;;;;;6287637;28;20042;-71
2022/04/21 08:39:12;;;;;;;9.23;4.57;;;20.00;54.10;;;;;;6290805;28;20378;-70
2022/04/21 08:42:14;;;;;;;7.85;4.38;;;20.00;53.90;;;;;;6289108;28;20035;-70
2022/04/21 08:45:15;;;;;;;12.75;5.57;;;20.10;53.80;;;;;;6272355;28;20040;-71
2022/04/21 08:48:18;;;;;;;9.48;6.07;;;20.20;53.70;;;;;;6290269;28;20037;-71
2022/04/21 08:51:20;;;;;;;10.88;5.32;;;20.20;53.50;;;;;;6283360;28;20033;-71
2022/04/21 08:54:23;;;;;;;14.10;6.28;;;20.20;53.50;;;;;;6290654;28;20037;-70
2022/04/21 08:57:24;;;;;;;20.45;6.25;;;20.40;53.40;;;;;;6289154;28;20075;-70
2022/04/21 09:00:25;;;;;;;14.70;5.78;;;20.50;53.10;;;;;;6272257;28;20048;-70
2022/04/21 09:03:26;;;;;;;12.98;6.63;;;20.80;52.50;;;;;;6291821;28;20428;-70
2022/04/21 09:06:29;;;;;;;10.75;5.47;;;21.00;51.90;;;;;;6294646;28;20036;-70
2022/04/21 09:09:32;;;;;;;10.30;5.68;;;21.20;51.50;;;;;;6271545;28;20060;-70
2022/04/21 09:12:36;;;;;;;7.10;4.03;;;21.30;51.10;;;;;;6293787;28;20037;-71
2022/04/21 09:15:37;;;;;;;8.27;4.70;;;21.40;50.40;;;;;;6293276;28;20036;-70
2022/04/21 09:18:43;;;;;;;7.15;4.65;;;21.30;50.20;;;;;;6293669;28;20068;-70
2022/04/21 09:21:44;;;;;;;8.77;4.57;;;21.30;50.00;;;;;;6286979;28;20534;-70
2022/04/21 09:24:45;;;;;;;10.27;5.07;;;21.50;50.00;;;;;;6294769;28;20028;-71
2022/04/21 09:27:50;;;;;;;13.57;5.22;;;21.60;49.60;;;;;;6290059;28;20029;-71
2022/04/21 09:30:52;;;;;;;19.35;5.15;;;21.80;49.10;;;;;;6293785;28;20036;-70
2022/04/21 09:33:54;;;;;;;9.35;5.28;;;21.90;48.60;;;;;;6293403;28;20054;-71
2022/04/21 09:36:57;;;;;;;9.90;5.47;;;22.00;48.40;;;;;;6292507;28;20032;-71
2022/04/21 09:40:00;;;;;;;12.80;4.70;;;22.00;48.00;;;;;;6291911;28;20045;-70
2022/04/21 09:43:03;;;;;;;7.47;4.78;;;22.00;48.00;;;;;;6292339;28;20028;-70
2022/04/21 09:46:17;;;;;;;11.30;4.75;;;22.10;47.90;;;;;;6286685;28;20094;-70
2022/04/21 09:49:43;;;;;;;9.98;5.50;;;22.20;47.40;;;;;;6291753;28;20033;-71
2022/04/21 09:52:47;;;;;;;11.15;5.70;;;22.30;46.80;;;;;;6272745;28;20072;-71
2022/04/21 09:55:49;;;;;;;6.45;4.05;;;22.30;46.20;;;;;;6301781;28;20090;-70
2022/04/21 09:58:50;;;;;;;9.77;4.95;;;22.10;45.90;;;;;;6293630;28;20032;-71
2022/04/21 10:01:51;;;;;;;8.48;3.95;;;22.10;46.10;;;;;;6291071;28;20029;-72
2022/04/21 10:04:54;;;;;;;7.18;4.03;;;22.20;46.20;;;;;;6289118;28;20048;-69
2022/04/21 10:07:55;;;;;;;9.70;4.13;;;22.20;45.20;;;;;;6289779;28;20058;-70
2022/04/21 10:10:56;;;;;;;7.22;3.90;;;22.20;44.80;;;;;;6292107;28;20036;-70
2022/04/21 10:13:58;;;;;;;8.25;4.10;;;22.30;44.70;;;;;;6289286;28;20043;-71
2022/04/21 10:16:59;;;;;;;21.25;4.57;;;22.30;44.60;;;;;;6291274;28;20473;-72
2022/04/21 10:20:01;;;;;;;7.45;3.97;;;22.40;44.40;;;;;;6286537;28;20105;-72
2022/04/21 10:23:04;;;;;;;8.55;3.95;;;22.60;44.10;;;;;;6292412;28;20029;-70
2022/04/21 10:26:05;;;;;;;12.70;4.05;;;22.80;43.70;;;;;;6289222;28;20044;-72
2022/04/21 10:29:22;;;;;;;4.75;3.50;;;22.90;43.30;;;;;;6288629;28;20110;-70
2022/04/21 10:32:52;;;;;;;18.95;7.45;;;23.00;43.00;;;;;;6307110;28;20044;-71
2022/04/21 10:35:56;;;;;;;8.05;4.25;;;23.10;43.10;;;;;;6290308;28;20036;-71
2022/04/21 10:39:10;;;;;;;7.95;4.10;;;23.10;43.10;;;;;;6293577;28;20089;-72
2022/04/21 10:42:14;;;;;;;9.00;4.10;;;23.10;42.80;;;;;;6289910;28;20040;-70
2022/04/21 10:45:15;;;;;;;7.70;3.70;;;23.00;42.70;;;;;;6290009;28;20051;-71
2022/04/21 10:48:16;;;;;;;7.63;3.55;;;23.00;42.80;;;;;;6290070;28;20426;-71
2022/04/21 10:57:11;;;;;;;5.38;3.83;;;23.20;42.60;;;;;;6293272;28;20032;-70
2022/04/21 10:58:34;;;;;;;11.00;3.53;;;24.30;39.80;;;;;;6289529;28;20094;-71
2022/04/21 11:01:35;;;;;;;11.60;3.55;;;24.40;39.70;;;;;;6287996;28;20487;-70
2022/04/21 11:04:36;;;;;;;6.15;3.55;;;24.50;39.40;;;;;;6272929;28;20032;-71
2022/04/21 11:08:13;;;;;;;8.70;4.15;;;24.70;38.90;;;;;;6290146;28;20381;-71
2022/04/21 11:11:43;;;;;;;5.88;4.25;;;24.80;38.30;;;;;;6236360;28;20116;-71
2022/04/21 11:14:45;;;;;;;14.57;5.15;;;24.70;38.20;;;;;;6239792;28;20454;-71
2022/04/21 11:18:02;;;;;;;6.25;3.65;;;24.60;38.40;;;;;;6238512;28;20083;-70
2022/04/21 11:21:32;;;;;;;6.22;4.22;;;24.40;38.90;;;;;;6237884;28;20484;-71
2022/04/21 11:24:56;;;;;;;7.78;3.85;;;24.20;39.40;;;;;;6238524;28;20040;-71
2022/04/21 11:27:57;;;;;;;5.80;3.60;;;24.10;39.90;;;;;;6233658;28;20033;-71
2022/04/21 11:31:00;;;;;;;6.05;3.90;;;24.10;39.80;;;;;;6238117;28;20576;-71
2022/04/21 11:34:02;;;;;;;7.22;4.57;;;24.20;39.60;;;;;;6222804;28;20038;-71
2022/04/21 11:37:06;;;;;;;12.77;3.70;;;24.40;39.30;;;;;;6239108;28;20116;-71
2022/04/21 11:40:18;;;;;;;6.28;3.53;;;24.70;38.70;;;;;;6237658;28;20030;-72
2022/04/21 11:43:19;;;;;;;6.53;4.18;;;25.00;38.00;;;;;;6237905;28;20095;-73
2022/04/21 11:46:20;;;;;;;7.68;3.75;;;25.20;37.40;;;;;;6232592;28;20430;-71
2022/04/21 11:49:21;;;;;;;7.05;3.85;;;25.30;37.20;;;;;;6271194;28;20036;-72
2022/04/21 11:52:27;;;;;;;12.48;4.63;;;25.40;36.90;;;;;;6289132;28;20052;-72
2022/04/21 11:55:29;;;;;;;6.47;3.80;;;25.50;36.90;;;;;;6306135;28;20064;-71
2022/04/21 11:58:32;;;;;;;6.05;3.10;;;25.70;36.60;;;;;;6284485;28;20411;-71
2022/04/21 12:08:12;;;;;;;6.25;3.20;;;26.20;35.80;;;;;;6297607;28;20086;-70
2022/04/21 12:11:17;;;;;;;7.90;3.13;;;26.50;35.40;;;;;;6287498;28;20032;-71
2022/04/21 12:14:18;;;;;;;5.22;3.20;;;26.90;34.70;;;;;;6287900;28;20028;-70
2022/04/21 12:17:20;;;;;;;4.32;2.78;;;27.50;33.60;;;;;;6288354;28;20377;-71
2022/04/21 12:20:21;;;;;;;9.63;3.42;;;28.20;32.60;;;;;;6288046;28;20461;-71
2022/04/21 12:23:27;;;;;;;6.57;2.58;;;28.70;31.40;;;;;;6287129;28;20372;-71
2022/04/21 12:26:28;;;;;;;11.32;3.20;;;28.90;30.60;;;;;;6287811;28;20115;-71
2022/04/21 12:29:31;;;;;;;8.25;3.10;;;28.90;30.30;;;;;;6286308;28;20117;-71
2022/04/21 12:32:33;;;;;;;19.65;9.00;;;28.80;30.60;;;;;;6284290;28;20485;-71
2022/04/21 12:35:45;;;;;;;10.05;3.70;;;29.00;30.00;;;;;;6284970;28;20033;-71
2022/04/21 12:39:02;;;;;;;6.65;3.72;;;29.10;29.70;;;;;;6286903;28;20129;-71
2022/04/21 12:42:04;;;;;;;5.65;3.22;;;29.00;29.60;;;;;;6303117;28;20051;-71
2022/04/21 12:45:06;;;;;;;6.93;3.47;;;29.10;29.30;;;;;;6271571;28;20124;-71
2022/04/21 12:48:23;;;;;;;5.15;3.55;;;29.20;29.20;;;;;;6288263;28;20043;-71
2022/04/21 12:51:26;;;;;;;9.15;3.10;;;29.40;29.00;;;;;;6302843;28;20037;-71
2022/04/21 12:54:27;;;;;;;4.35;3.03;;;30.00;28.50;;;;;;6290478;28;20041;-71
2022/04/21 12:57:28;;;;;;;4.82;3.13;;;30.50;27.80;;;;;;6288564;28;20044;-72
2022/04/21 13:00:29;;;;;;;7.05;3.15;;;30.80;27.20;;;;;;6289888;28;20116;-71
2022/04/21 13:03:31;;;;;;;10.85;2.80;;;30.90;26.90;;;;;;6266253;28;20038;-71
2022/04/21 13:06:32;;;;;;;4.72;2.45;;;31.70;26.40;;;;;;6284678;28;20487;-71
2022/04/21 13:09:33;;;;;;;7.55;2.65;;;32.20;25.80;;;;;;6271051;28;20033;-71
2022/04/21 13:12:34;;;;;;;8.57;2.85;;;32.40;25.20;;;;;;6270768;28;20112;-72
2022/04/21 13:15:36;;;;;;;6.20;2.38;;;32.20;25.30;;;;;;6290253;28;20048;-71
2022/04/21 13:18:37;;;;;;;9.38;3.33;;;31.60;25.50;;;;;;6291097;28;20389;-71
2022/04/21 13:21:53;;;;;;;6.97;2.40;;;31.00;26.00;;;;;;6287379;28;20032;-71
2022/04/21 13:24:54;;;;;;;5.00;2.20;;;30.50;26.40;;;;;;6289098;28;20111;-72
2022/04/21 13:27:55;;;;;;;7.13;2.78;;;29.80;26.60;;;;;;6287927;28;20036;-71
2022/04/21 13:34:15;;;;;;;8.25;3.08;;;28.80;27.70;;;;;;6287241;28;20119;-73
2022/04/21 13:37:16;;;;;;;7.57;3.10;;;28.80;28.20;;;;;;6284840;28;20033;-70
2022/04/21 13:40:17;;;;;;;4.50;3.30;;;28.80;28.20;;;;;;6288896;28;20107;-71
2022/04/21 13:43:18;;;;;;;4.82;3.40;;;28.70;28.50;;;;;;6288803;28;20471;-70
2022/04/21 13:46:19;;;;;;;5.93;3.25;;;28.70;28.80;;;;;;6271453;28;20174;-71
2022/04/21 13:49:20;;;;;;;4.90;3.28;;;29.80;28.00;;;;;;6291562;28;20585;-71
2022/04/21 13:52:21;;;;;;;10.65;3.22;;;31.00;26.90;;;;;;6275474;28;20111;-72
2022/04/21 13:55:22;;;;;;;6.03;3.63;;;31.50;26.40;;;;;;6291715;28;20102;-72
2022/04/21 13:58:22;;;;;;;4.90;3.13;;;31.30;26.30;;;;;;6291884;28;20055;-71
2022/04/21 14:01:25;;;;;;;6.00;3.80;;;31.10;26.50;;;;;;6293355;28;20050;-71
2022/04/21 14:04:27;;;;;;;7.55;3.63;;;30.90;26.50;;;;;;6288992;28;20036;-71
2022/04/21 14:07:28;;;;;;;7.32;2.60;;;30.50;26.90;;;;;;6289020;28;20043;-71
2022/04/21 14:10:29;;;;;;;8.77;2.85;;;30.00;27.40;;;;;;6291198;28;20024;-72
2022/04/21 14:13:30;;;;;;;7.18;3.20;;;29.50;27.80;;;;;;6291091;28;20028;-71
2022/04/21 14:16:33;;;;;;;5.43;2.97;;;29.10;28.20;;;;;;6292556;28;20445;-71
2022/04/21 14:19:33;;;;;;;7.80;3.00;;;28.80;28.60;;;;;;6292300;28;20047;-71
2022/04/21 14:22:35;;;;;;;8.88;3.13;;;28.50;28.80;;;;;;6291988;28;20041;-70
2022/04/21 14:25:36;;;;;;;4.78;3.35;;;28.20;29.00;;;;;;6293584;28;20051;-71
2022/04/21 14:28:39;;;;;;;3.85;3.03;;;28.00;29.30;;;;;;6286716;28;20371;-71
2022/04/21 14:31:40;;;;;;;4.50;2.85;;;28.00;29.40;;;;;;6290481;28;20554;-70
2022/04/21 14:34:41;;;;;;;8.70;3.15;;;28.00;29.30;;;;;;6289776;28;20094;-71
2022/04/21 14:44:21;;;;;;;6.55;3.20;;;28.20;29.20;;;;;;6290701;28;20476;-72
2022/04/21 14:47:22;;;;;;;6.00;2.85;;;28.20;29.30;;;;;;6289352;28;20147;-71
2022/04/21 14:50:23;;;;;;;5.07;3.60;;;28.10;29.40;;;;;;6293082;28;20121;-71
2022/04/21 14:53:24;;;;;;;4.30;2.78;;;27.90;29.50;;;;;;6292124;28;20048;-72
2022/04/21 14:56:25;;;;;;;11.75;4.55;;;27.80;29.70;;;;;;6290956;28;20381;-72
2022/04/21 14:59:26;;;;;;;7.97;2.70;;;27.70;29.80;;;;;;6288699;28;20040;-71
2022/04/21 15:02:27;;;;;;;6.07;2.80;;;27.50;30.00;;;;;;6272037;28;20052;-71
2022/04/21 15:05:28;;;;;;;3.55;2.65;;;27.40;30.10;;;;;;6288269;28;20458;-70
2022/04/21 15:08:29;;;;;;;4.78;2.42;;;27.40;30.30;;;;;;6293452;28;20032;-71
2022/04/21 15:11:29;;;;;;;10.52;3.20;;;27.30;30.40;;;;;;6290753;28;20765;-71
2022/04/21 15:14:32;;;;;;;6.55;3.00;;;27.10;30.10;;;;;;6289938;28;20041;-71
2022/04/21 15:17:33;;;;;;;4.35;2.80;;;27.10;30.30;;;;;;6289518;28;20101;-72
2022/04/21 15:20:34;;;;;;;4.63;2.50;;;27.10;30.30;;;;;;6291805;28;20072;-71
2022/04/21 15:23:35;;;;;;;6.03;2.67;;;27.10;30.20;;;;;;6287400;28;20028;-71
2022/04/21 15:26:36;;;;;;;3.28;2.05;;;27.20;30.40;;;;;;6289362;28;20450;-71
2022/04/21 15:29:37;;;;;;;3.00;2.05;;;27.10;29.90;;;;;;6291016;28;20433;-72
2022/04/21 15:32:38;;;;;;;3.90;2.33;;;27.00;29.80;;;;;;6287928;28;20031;-71
2022/04/21 15:35:40;;;;;;;6.97;2.35;;;27.00;29.90;;;;;;6292895;28;20438;-70
2022/04/21 15:38:49;;;;;;;4.47;1.95;;;27.00;29.90;;;;;;6286803;28;20445;-71
2022/04/21 15:41:50;;;;;;;4.75;1.90;;;26.90;29.70;;;;;;6305333;28;20033;-71
2022/04/21 15:44:50;;;;;;;5.47;2.10;;;26.90;29.50;;;;;;6291656;28;20047;-70
2022/04/21 15:47:51;;;;;;;4.43;2.30;;;26.80;29.50;;;;;;6290550;28;20040;-71
2022/04/21 15:50:52;;;;;;;4.55;2.15;;;26.80;29.50;;;;;;6285795;28;20055;-71
2022/04/21 16:00:32;;;;;;;6.18;1.90;;;27.00;29.70;;;;;;6292243;28;20044;-71
2022/04/21 16:03:33;;;;;;;4.00;2.15;;;26.80;29.90;;;;;;6289545;28;20394;-71
2022/04/21 16:06:35;;;;;;;3.90;2.40;;;26.70;30.00;;;;;;6287717;28;20047;-71
2022/04/21 16:09:36;;;;;;;4.07;2.10;;;26.60;30.10;;;;;;6273216;28;20024;-71
2022/04/21 16:12:37;;;;;;;9.88;2.08;;;26.40;30.30;;;;;;6290791;28;20040;-71
2022/04/21 16:15:38;;;;;;;4.32;2.40;;;26.30;30.50;;;;;;6295108;28;20040;-70
2022/04/21 16:18:39;;;;;;;3.72;2.13;;;26.10;30.70;;;;;;6293875;28;20365;-71
2022/04/21 16:21:40;;;;;;;2.90;2.00;;;26.00;30.90;;;;;;6291153;28;20032;-71
2022/04/21 16:24:41;;;;;;;3.15;2.35;;;25.90;31.10;;;;;;6290833;28;20024;-71
2022/04/21 16:27:42;;;;;;;6.18;2.33;;;25.80;31.30;;;;;;6292265;28;20417;-71
2022/04/21 16:30:44;;;;;;;3.90;1.90;;;25.70;31.60;;;;;;6288654;28;20041;-71
2022/04/21 16:33:45;;;;;;;5.60;2.40;;;25.60;31.80;;;;;;6285540;28;20032;-70
2022/04/21 16:36:45;;;;;;;5.85;2.53;;;25.60;32.00;;;;;;6290100;28;20036;-72
2022/04/21 16:39:47;;;;;;;4.30;2.50;;;25.50;32.10;;;;;;6287978;28;20113;-71
2022/04/21 16:42:50;;;;;;;4.43;2.42;;;25.40;32.20;;;;;;6274121;28;20044;-71
2022/04/21 16:45:51;;;;;;;6.10;2.60;;;25.30;32.40;;;;;;6290246;28;20033;-71